sensor_id;sensor_type;location;lat;lon;timestamp;pressure;altitude;pressure_sealevel;temperature;humidity
37694;BME280;23531;50.122;8.644;2024-01-06T00:00:45;99322.44;;;6.84;76.34
37694;BME280;23531;50.122;8.644;2024-01-06T00:02:50;99312.78;;;6.83;76.25
37694;BME280;23531;50.122;8.644;2024-01-06T00:04:52;99312.84;;;7.08;74.94
37694;BME280;23531;50.122;8.644;2024-01-06T00:06:53;99320.44;;;7.11;74.39
37694;BME280;23531;50.122;8.644;2024-01-06T00:08:54;99319.91;;;6.96;75.05
37694;BME280;23531;50.122;8.644;2024-01-06T00:10:56;99319.16;;;6.82;75.37
37694;BME280;23531;50.122;8.644;2024-01-06T00:12:57;99316.84;;;6.92;75.56
37694;BME280;23531;50.122;8.644;2024-01-06T00:14:59;99314.41;;;6.84;75.65
37694;BME280;23531;50.122;8.644;2024-01-06T00:17:00;99323.72;;;6.75;76.17
37694;BME280;23531;50.122;8.644;2024-01-06T00:19:03;99316.88;;;6.86;75.99
37694;BME280;23531;50.122;8.644;2024-01-06T00:21:05;99323.41;;;6.97;75.84
37694;BME280;23531;50.122;8.644;2024-01-06T00:23:06;99321.63;;;6.77;75.82
37694;BME280;23531;50.122;8.644;2024-01-06T00:25:08;99320.91;;;6.50;76.70
37694;BME280;23531;50.122;8.644;2024-01-06T00:27:08;99329.81;;;6.31;77.58
37694;BME280;23531;50.122;8.644;2024-01-06T00:29:10;99334.91;;;6.33;77.58
37694;BME280;23531;50.122;8.644;2024-01-06T00:31:11;99324.84;;;6.41;77.72
37694;BME280;23531;50.122;8.644;2024-01-06T00:33:12;99326.06;;;6.52;76.96
37694;BME280;23531;50.122;8.644;2024-01-06T00:35:15;99329.72;;;6.64;76.57
37694;BME280;23531;50.122;8.644;2024-01-06T00:37:17;99333.63;;;6.62;76.79
37694;BME280;23531;50.122;8.644;2024-01-06T00:39:20;99334.22;;;6.64;76.64
37694;BME280;23531;50.122;8.644;2024-01-06T00:41:21;99333.59;;;6.68;76.26
37694;BME280;23531;50.122;8.644;2024-01-06T00:43:22;99341.63;;;6.62;76.79
37694;BME280;23531;50.122;8.644;2024-01-06T00:45:24;99343.28;;;6.63;76.62
37694;BME280;23531;50.122;8.644;2024-01-06T00:47:25;99347.78;;;6.62;76.71
37694;BME280;23531;50.122;8.644;2024-01-06T00:49:26;99346.97;;;6.62;76.37
37694;BME280;23531;50.122;8.644;2024-01-06T00:51:28;99340.78;;;6.68;76.78
37694;BME280;23531;50.122;8.644;2024-01-06T00:53:30;99350.25;;;6.64;76.92
37694;BME280;23531;50.122;8.644;2024-01-06T00:55:31;99351.50;;;6.61;76.55
37694;BME280;23531;50.122;8.644;2024-01-06T00:57:33;99348.03;;;6.54;76.78
37694;BME280;23531;50.122;8.644;2024-01-06T00:59:33;99360.13;;;6.56;76.72
37694;BME280;23531;50.122;8.644;2024-01-06T01:01:34;99357.66;;;6.62;76.45
37694;BME280;23531;50.122;8.644;2024-01-06T01:03:36;99354.78;;;6.63;76.59
37694;BME280;23531;50.122;8.644;2024-01-06T01:05:38;99358.84;;;6.72;76.50
37694;BME280;23531;50.122;8.644;2024-01-06T01:07:41;99360.28;;;6.75;76.18
37694;BME280;23531;50.122;8.644;2024-01-06T01:09:42;99364.81;;;6.74;76.65
37694;BME280;23531;50.122;8.644;2024-01-06T01:11:43;99365.03;;;6.73;76.97
37694;BME280;23531;50.122;8.644;2024-01-06T01:13:45;99365.78;;;6.86;76.75
37694;BME280;23531;50.122;8.644;2024-01-06T01:15:46;99372.34;;;6.90;76.80
37694;BME280;23531;50.122;8.644;2024-01-06T01:17:48;99366.59;;;6.93;76.48
37694;BME280;23531;50.122;8.644;2024-01-06T01:19:49;99377.69;;;6.90;77.06
37694;BME280;23531;50.122;8.644;2024-01-06T01:21:50;99367.81;;;6.91;76.89
37694;BME280;23531;50.122;8.644;2024-01-06T01:23:56;99373.97;;;6.98;76.87
37694;BME280;23531;50.122;8.644;2024-01-06T01:25:58;99374.34;;;7.02;76.23
37694;BME280;23531;50.122;8.644;2024-01-06T01:27:59;99377.22;;;7.00;76.75
37694;BME280;23531;50.122;8.644;2024-01-06T01:30:01;99376.44;;;7.00;76.26
37694;BME280;23531;50.122;8.644;2024-01-06T01:32:03;99376.00;;;7.03;76.22
37694;BME280;23531;50.122;8.644;2024-01-06T01:34:04;99381.28;;;7.16;75.85
37694;BME280;23531;50.122;8.644;2024-01-06T01:36:06;99384.72;;;7.23;75.90
37694;BME280;23531;50.122;8.644;2024-01-06T01:38:07;99387.41;;;7.23;75.99
37694;BME280;23531;50.122;8.644;2024-01-06T01:40:10;99389.50;;;7.21;75.83
37694;BME280;23531;50.122;8.644;2024-01-06T01:42:11;99390.53;;;7.20;75.79
37694;BME280;23531;50.122;8.644;2024-01-06T01:44:13;99386.22;;;7.19;75.68
37694;BME280;23531;50.122;8.644;2024-01-06T01:46:14;99390.53;;;7.13;75.92
37694;BME280;23531;50.122;8.644;2024-01-06T01:48:16;99394.03;;;7.14;75.71
37694;BME280;23531;50.122;8.644;2024-01-06T01:50:16;99384.78;;;7.16;75.79
37694;BME280;23531;50.122;8.644;2024-01-06T01:52:20;99391.41;;;7.07;76.04
37694;BME280;23531;50.122;8.644;2024-01-06T01:54:21;99396.09;;;7.12;76.30
37694;BME280;23531;50.122;8.644;2024-01-06T01:56:25;99392.19;;;7.14;76.36
37694;BME280;23531;50.122;8.644;2024-01-06T01:58:27;99401.88;;;7.09;76.64
37694;BME280;23531;50.122;8.644;2024-01-06T02:00:28;99404.41;;;6.90;76.57
37694;BME280;23531;50.122;8.644;2024-01-06T02:04:35;99399.09;;;6.84;76.89
37694;BME280;23531;50.122;8.644;2024-01-06T02:06:36;99404.00;;;6.93;76.43
37694;BME280;23531;50.122;8.644;2024-01-06T02:08:38;99397.81;;;6.93;76.02
37694;BME280;23531;50.122;8.644;2024-01-06T02:10:38;99401.94;;;6.96;76.73
37694;BME280;23531;50.122;8.644;2024-01-06T02:12:41;99415.47;;;7.01;76.39
37694;BME280;23531;50.122;8.644;2024-01-06T02:14:43;99401.47;;;7.05;76.15
37694;BME280;23531;50.122;8.644;2024-01-06T02:16:44;99411.09;;;7.13;75.46
37694;BME280;23531;50.122;8.644;2024-01-06T02:18:46;99408.06;;;7.03;76.12
37694;BME280;23531;50.122;8.644;2024-01-06T02:20:48;99406.91;;;6.85;76.19
37694;BME280;23531;50.122;8.644;2024-01-06T02:22:52;99404.84;;;6.87;76.60
37694;BME280;23531;50.122;8.644;2024-01-06T02:24:54;99409.13;;;6.88;76.33
37694;BME280;23531;50.122;8.644;2024-01-06T02:26:55;99407.22;;;7.09;76.02
37694;BME280;23531;50.122;8.644;2024-01-06T02:28:56;99401.47;;;7.05;76.17
37694;BME280;23531;50.122;8.644;2024-01-06T02:30:58;99410.53;;;7.11;75.92
37694;BME280;23531;50.122;8.644;2024-01-06T02:32:59;99406.38;;;7.15;75.64
37694;BME280;23531;50.122;8.644;2024-01-06T02:35:00;99410.94;;;7.08;75.80
37694;BME280;23531;50.122;8.644;2024-01-06T02:37:01;99413.81;;;7.06;75.56
37694;BME280;23531;50.122;8.644;2024-01-06T02:39:03;99412.13;;;7.12;75.48
37694;BME280;23531;50.122;8.644;2024-01-06T02:41:04;99412.34;;;7.17;75.82
37694;BME280;23531;50.122;8.644;2024-01-06T02:43:06;99418.69;;;7.16;75.49
37694;BME280;23531;50.122;8.644;2024-01-06T02:45:08;99415.81;;;7.17;75.77
37694;BME280;23531;50.122;8.644;2024-01-06T02:47:09;99422.00;;;7.18;75.29
37694;BME280;23531;50.122;8.644;2024-01-06T02:49:11;99426.47;;;7.24;75.54
37694;BME280;23531;50.122;8.644;2024-01-06T02:51:12;99427.28;;;7.31;75.13
37694;BME280;23531;50.122;8.644;2024-01-06T02:53:14;99438.88;;;7.12;75.49
37694;BME280;23531;50.122;8.644;2024-01-06T02:55:16;99435.81;;;7.08;75.82
37694;BME280;23531;50.122;8.644;2024-01-06T02:57:18;99438.28;;;7.10;76.05
37694;BME280;23531;50.122;8.644;2024-01-06T02:59:19;99435.56;;;7.16;75.56
37694;BME280;23531;50.122;8.644;2024-01-06T03:01:21;99440.72;;;7.18;75.23
37694;BME280;23531;50.122;8.644;2024-01-06T03:03:22;99442.16;;;7.20;75.35
37694;BME280;23531;50.122;8.644;2024-01-06T03:05:23;99438.44;;;7.21;75.63
37694;BME280;23531;50.122;8.644;2024-01-06T03:07:24;99432.38;;;6.88;76.37
37694;BME280;23531;50.122;8.644;2024-01-06T03:09:25;99438.34;;;6.83;77.19
37694;BME280;23531;50.122;8.644;2024-01-06T03:11:28;99442.47;;;6.86;76.73
37694;BME280;23531;50.122;8.644;2024-01-06T03:13:30;99437.31;;;6.84;76.92
37694;BME280;23531;50.122;8.644;2024-01-06T03:15:31;99443.50;;;6.78;76.67
37694;BME280;23531;50.122;8.644;2024-01-06T03:17:31;99444.28;;;6.92;77.08
37694;BME280;23531;50.122;8.644;2024-01-06T03:19:33;99441.81;;;6.90;76.92
37694;BME280;23531;50.122;8.644;2024-01-06T03:21:33;99441.25;;;6.75;77.15
37694;BME280;23531;50.122;8.644;2024-01-06T03:23:35;99438.19;;;6.65;77.55
37694;BME280;23531;50.122;8.644;2024-01-06T03:25:36;99444.94;;;6.87;77.34
37694;BME280;23531;50.122;8.644;2024-01-06T03:27:39;99440.63;;;6.80;76.87
37694;BME280;23531;50.122;8.644;2024-01-06T03:29:40;99442.88;;;6.83;77.38
37694;BME280;23531;50.122;8.644;2024-01-06T03:31:41;99433.19;;;6.88;77.04
37694;BME280;23531;50.122;8.644;2024-01-06T03:33:44;99445.53;;;6.89;76.97
37694;BME280;23531;50.122;8.644;2024-01-06T03:35:45;99439.97;;;6.98;76.89
37694;BME280;23531;50.122;8.644;2024-01-06T03:37:46;99441.00;;;6.97;76.45
37694;BME280;23531;50.122;8.644;2024-01-06T03:39:48;99437.75;;;6.81;77.16
37694;BME280;23531;50.122;8.644;2024-01-06T03:41:49;99435.66;;;6.97;76.87
37694;BME280;23531;50.122;8.644;2024-01-06T03:43:51;99431.69;;;7.06;76.46
37694;BME280;23531;50.122;8.644;2024-01-06T03:45:52;99441.38;;;7.07;76.82
37694;BME280;23531;50.122;8.644;2024-01-06T03:47:53;99437.84;;;7.13;76.40
37694;BME280;23531;50.122;8.644;2024-01-06T03:49:54;99443.34;;;7.24;75.90
37694;BME280;23531;50.122;8.644;2024-01-06T03:51:56;99448.31;;;7.21;76.60
37694;BME280;23531;50.122;8.644;2024-01-06T03:53:57;99447.44;;;7.27;76.21
37694;BME280;23531;50.122;8.644;2024-01-06T03:55:57;99451.34;;;7.31;75.65
37694;BME280;23531;50.122;8.644;2024-01-06T03:57:59;99458.97;;;7.27;76.33
37694;BME280;23531;50.122;8.644;2024-01-06T04:00:02;99459.00;;;7.21;76.12
37694;BME280;23531;50.122;8.644;2024-01-06T04:02:03;99456.34;;;7.21;76.39
37694;BME280;23531;50.122;8.644;2024-01-06T04:04:05;99461.09;;;7.06;76.44
37694;BME280;23531;50.122;8.644;2024-01-06T04:06:07;99471.81;;;6.92;77.03
37694;BME280;23531;50.122;8.644;2024-01-06T04:08:08;99475.09;;;7.08;76.59
37694;BME280;23531;50.122;8.644;2024-01-06T04:10:09;99475.50;;;7.05;76.79
37694;BME280;23531;50.122;8.644;2024-01-06T04:12:10;99479.47;;;6.82;77.45
37694;BME280;23531;50.122;8.644;2024-01-06T04:14:11;99472.09;;;6.71;78.24
37694;BME280;23531;50.122;8.644;2024-01-06T04:16:14;99470.03;;;6.67;78.10
37694;BME280;23531;50.122;8.644;2024-01-06T04:18:15;99467.34;;;6.80;77.38
37694;BME280;23531;50.122;8.644;2024-01-06T04:20:16;99464.47;;;6.68;78.07
37694;BME280;23531;50.122;8.644;2024-01-06T04:22:17;99472.09;;;6.71;78.08
37694;BME280;23531;50.122;8.644;2024-01-06T04:24:18;99464.03;;;6.78;78.04
37694;BME280;23531;50.122;8.644;2024-01-06T04:26:19;99465.72;;;6.72;78.02
37694;BME280;23531;50.122;8.644;2024-01-06T04:28:20;99468.19;;;6.74;77.84
37694;BME280;23531;50.122;8.644;2024-01-06T04:30:21;99469.22;;;6.60;78.20
37694;BME280;23531;50.122;8.644;2024-01-06T04:32:24;99464.69;;;6.60;77.97
37694;BME280;23531;50.122;8.644;2024-01-06T04:34:25;99466.72;;;6.78;77.87
37694;BME280;23531;50.122;8.644;2024-01-06T04:36:27;99468.56;;;6.84;77.31
37694;BME280;23531;50.122;8.644;2024-01-06T04:38:28;99477.19;;;6.92;77.10
37694;BME280;23531;50.122;8.644;2024-01-06T04:40:30;99476.16;;;6.93;77.28
37694;BME280;23531;50.122;8.644;2024-01-06T04:42:30;99478.00;;;7.00;77.19
37694;BME280;23531;50.122;8.644;2024-01-06T04:44:32;99476.34;;;6.99;77.01
37694;BME280;23531;50.122;8.644;2024-01-06T04:46:33;99472.78;;;7.11;76.85
37694;BME280;23531;50.122;8.644;2024-01-06T04:48:35;99471.97;;;7.17;76.28
37694;BME280;23531;50.122;8.644;2024-01-06T04:50:36;99473.41;;;7.20;76.28
37694;BME280;23531;50.122;8.644;2024-01-06T04:52:38;99476.25;;;7.25;75.80
37694;BME280;23531;50.122;8.644;2024-01-06T04:54:39;99468.06;;;7.20;76.11
37694;BME280;23531;50.122;8.644;2024-01-06T04:56:41;99468.44;;;7.30;76.08
37694;BME280;23531;50.122;8.644;2024-01-06T04:58:42;99465.50;;;7.45;75.48
37694;BME280;23531;50.122;8.644;2024-01-06T05:00:43;99466.41;;;7.19;75.62
37694;BME280;23531;50.122;8.644;2024-01-06T05:02:45;99458.56;;;7.24;75.39
37694;BME280;23531;50.122;8.644;2024-01-06T05:04:48;99452.38;;;7.30;75.50
37694;BME280;23531;50.122;8.644;2024-01-06T05:06:48;99447.03;;;7.30;75.23
37694;BME280;23531;50.122;8.644;2024-01-06T05:08:50;99455.47;;;7.27;75.02
37694;BME280;23531;50.122;8.644;2024-01-06T05:10:52;99458.75;;;7.29;74.98
37694;BME280;23531;50.122;8.644;2024-01-06T05:12:53;99471.72;;;7.32;75.22
37694;BME280;23531;50.122;8.644;2024-01-06T05:14:55;99471.72;;;7.25;75.52
37694;BME280;23531;50.122;8.644;2024-01-06T05:16:56;99470.56;;;7.02;76.11
37694;BME280;23531;50.122;8.644;2024-01-06T05:18:57;99480.50;;;6.81;77.13
37694;BME280;23531;50.122;8.644;2024-01-06T05:21:00;99478.81;;;6.93;76.86
37694;BME280;23531;50.122;8.644;2024-01-06T05:23:03;99475.88;;;7.15;76.60
37694;BME280;23531;50.122;8.644;2024-01-06T05:25:05;99477.53;;;7.16;76.15
37694;BME280;23531;50.122;8.644;2024-01-06T05:27:06;99489.88;;;7.10;76.91
37694;BME280;23531;50.122;8.644;2024-01-06T05:29:08;99481.78;;;7.30;76.07
37694;BME280;23531;50.122;8.644;2024-01-06T05:31:08;99476.69;;;7.22;75.81
37694;BME280;23531;50.122;8.644;2024-01-06T05:33:10;99488.59;;;7.26;76.24
37694;BME280;23531;50.122;8.644;2024-01-06T05:35:13;99485.28;;;7.24;75.92
37694;BME280;23531;50.122;8.644;2024-01-06T05:37:16;99485.78;;;7.08;76.46
37694;BME280;23531;50.122;8.644;2024-01-06T05:39:17;99483.31;;;7.06;76.59
37694;BME280;23531;50.122;8.644;2024-01-06T05:41:19;99484.56;;;6.90;77.12
37694;BME280;23531;50.122;8.644;2024-01-06T05:43:20;99483.78;;;6.70;77.44
37694;BME280;23531;50.122;8.644;2024-01-06T05:45:21;99478.84;;;6.67;78.00
37694;BME280;23531;50.122;8.644;2024-01-06T05:47:22;99482.56;;;6.66;77.84
37694;BME280;23531;50.122;8.644;2024-01-06T05:49:23;99482.59;;;6.53;78.17
37694;BME280;23531;50.122;8.644;2024-01-06T05:51:25;99488.94;;;6.72;78.14
37694;BME280;23531;50.122;8.644;2024-01-06T05:53:27;99488.69;;;6.93;77.56
37694;BME280;23531;50.122;8.644;2024-01-06T05:55:29;99489.16;;;6.77;77.40
37694;BME280;23531;50.122;8.644;2024-01-06T05:57:30;99499.41;;;6.86;77.73
37694;BME280;23531;50.122;8.644;2024-01-06T05:59:32;99507.19;;;6.95;76.99
37694;BME280;23531;50.122;8.644;2024-01-06T06:01:34;99502.06;;;6.86;77.41
37694;BME280;23531;50.122;8.644;2024-01-06T06:03:35;99501.03;;;6.81;77.68
37694;BME280;23531;50.122;8.644;2024-01-06T06:05:37;99500.59;;;6.97;77.64
37694;BME280;23531;50.122;8.644;2024-01-06T06:07:39;99502.84;;;7.07;77.10
37694;BME280;23531;50.122;8.644;2024-01-06T06:09:41;99504.69;;;7.06;77.19
37694;BME280;23531;50.122;8.644;2024-01-06T06:11:43;99513.97;;;6.90;77.54
37694;BME280;23531;50.122;8.644;2024-01-06T06:13:44;99509.66;;;6.89;77.52
37694;BME280;23531;50.122;8.644;2024-01-06T06:15:46;99518.28;;;6.98;77.33
37694;BME280;23531;50.122;8.644;2024-01-06T06:17:47;99523.84;;;6.90;77.17
37694;BME280;23531;50.122;8.644;2024-01-06T06:19:48;99523.66;;;6.78;77.72
37694;BME280;23531;50.122;8.644;2024-01-06T06:21:50;99518.75;;;6.62;78.53
37694;BME280;23531;50.122;8.644;2024-01-06T06:23:50;99526.75;;;6.49;78.83
37694;BME280;23531;50.122;8.644;2024-01-06T06:25:53;99526.13;;;6.47;78.98
37694;BME280;23531;50.122;8.644;2024-01-06T06:27:54;99536.00;;;6.40;79.12
37694;BME280;23531;50.122;8.644;2024-01-06T06:29:56;99530.25;;;6.63;78.82
37694;BME280;23531;50.122;8.644;2024-01-06T06:31:56;99534.78;;;6.75;78.57
37694;BME280;23531;50.122;8.644;2024-01-06T06:33:58;99537.84;;;6.85;78.38
37694;BME280;23531;50.122;8.644;2024-01-06T06:36:00;99538.47;;;6.87;77.99
37694;BME280;23531;50.122;8.644;2024-01-06T06:38:01;99532.25;;;6.93;78.27
37694;BME280;23531;50.122;8.644;2024-01-06T06:40:04;99551.38;;;6.77;78.42
37694;BME280;23531;50.122;8.644;2024-01-06T06:42:07;99544.19;;;6.91;78.42
37694;BME280;23531;50.122;8.644;2024-01-06T06:44:08;99544.81;;;7.00;77.70
37694;BME280;23531;50.122;8.644;2024-01-06T06:46:10;99542.53;;;7.10;77.70
37694;BME280;23531;50.122;8.644;2024-01-06T06:48:12;99547.69;;;6.91;78.14
37694;BME280;23531;50.122;8.644;2024-01-06T06:50:13;99551.59;;;6.96;78.34
37694;BME280;23531;50.122;8.644;2024-01-06T06:52:15;99558.13;;;7.13;77.50
37694;BME280;23531;50.122;8.644;2024-01-06T06:54:16;99554.00;;;7.30;77.32
37694;BME280;23531;50.122;8.644;2024-01-06T06:56:18;99569.69;;;6.87;77.57
37694;BME280;23531;50.122;8.644;2024-01-06T06:58:20;99570.53;;;6.74;78.76
37694;BME280;23531;50.122;8.644;2024-01-06T07:00:22;99575.44;;;6.77;79.09
37694;BME280;23531;50.122;8.644;2024-01-06T07:02:23;99580.59;;;6.72;78.88
37694;BME280;23531;50.122;8.644;2024-01-06T07:04:25;99580.38;;;6.67;79.47
37694;BME280;23531;50.122;8.644;2024-01-06T07:06:27;99584.91;;;6.73;79.49
37694;BME280;23531;50.122;8.644;2024-01-06T07:08:28;99582.63;;;6.83;79.39
37694;BME280;23531;50.122;8.644;2024-01-06T07:10:30;99586.53;;;6.94;78.67
37694;BME280;23531;50.122;8.644;2024-01-06T07:12:31;99580.16;;;6.95;78.85
37694;BME280;23531;50.122;8.644;2024-01-06T07:14:34;99575.44;;;7.04;78.71
37694;BME280;23531;50.122;8.644;2024-01-06T07:16:35;99585.09;;;7.05;79.23
37694;BME280;23531;50.122;8.644;2024-01-06T07:18:37;99587.53;;;7.13;78.68
37694;BME280;23531;50.122;8.644;2024-01-06T07:20:38;99592.50;;;7.03;79.08
37694;BME280;23531;50.122;8.644;2024-01-06T07:22:40;99597.22;;;7.01;79.20
37694;BME280;23531;50.122;8.644;2024-01-06T07:24:41;99606.69;;;7.03;79.36
37694;BME280;23531;50.122;8.644;2024-01-06T07:26:43;99608.34;;;7.11;79.60
37694;BME280;23531;50.122;8.644;2024-01-06T07:28:44;99608.72;;;7.14;79.18
37694;BME280;23531;50.122;8.644;2024-01-06T07:30:46;99616.31;;;7.24;79.00
37694;BME280;23531;50.122;8.644;2024-01-06T07:32:47;99617.16;;;7.18;78.78
37694;BME280;23531;50.122;8.644;2024-01-06T07:34:50;99611.59;;;7.26;79.46
37694;BME280;23531;50.122;8.644;2024-01-06T07:36:52;99618.19;;;7.17;79.12
37694;BME280;23531;50.122;8.644;2024-01-06T07:38:53;99620.25;;;7.08;80.00
37694;BME280;23531;50.122;8.644;2024-01-06T07:40:55;99631.75;;;7.02;79.63
37694;BME280;23531;50.122;8.644;2024-01-06T07:42:56;99629.50;;;6.92;80.04
37694;BME280;23531;50.122;8.644;2024-01-06T07:44:58;99628.06;;;6.83;80.35
37694;BME280;23531;50.122;8.644;2024-01-06T07:47:01;99626.03;;;6.99;80.22
37694;BME280;23531;50.122;8.644;2024-01-06T07:49:05;99636.91;;;7.17;79.48
37694;BME280;23531;50.122;8.644;2024-01-06T07:51:06;99634.00;;;7.12;79.60
37694;BME280;23531;50.122;8.644;2024-01-06T07:53:08;99632.78;;;7.14;80.13
37694;BME280;23531;50.122;8.644;2024-01-06T07:55:08;99627.66;;;6.86;80.15
37694;BME280;23531;50.122;8.644;2024-01-06T07:57:10;99632.16;;;6.79;80.64
37694;BME280;23531;50.122;8.644;2024-01-06T07:59:13;99636.50;;;6.93;80.55
37694;BME280;23531;50.122;8.644;2024-01-06T08:01:15;99636.69;;;7.12;79.72
37694;BME280;23531;50.122;8.644;2024-01-06T08:03:17;99643.06;;;7.17;80.33
37694;BME280;23531;50.122;8.644;2024-01-06T08:05:19;99649.84;;;6.93;80.48
37694;BME280;23531;50.122;8.644;2024-01-06T08:07:21;99655.41;;;6.85;80.97
37694;BME280;23531;50.122;8.644;2024-01-06T08:09:22;99658.91;;;6.92;80.58
37694;BME280;23531;50.122;8.644;2024-01-06T08:11:23;99661.78;;;6.98;80.97
37694;BME280;23531;50.122;8.644;2024-01-06T08:13:25;99662.19;;;7.08;80.65
37694;BME280;23531;50.122;8.644;2024-01-06T08:15:26;99663.44;;;7.18;80.33
37694;BME280;23531;50.122;8.644;2024-01-06T08:17:28;99670.41;;;7.26;80.00
37694;BME280;23531;50.122;8.644;2024-01-06T08:19:30;99674.94;;;7.25;80.20
37694;BME280;23531;50.122;8.644;2024-01-06T08:21:33;99672.69;;;7.29;80.10
37694;BME280;23531;50.122;8.644;2024-01-06T08:23:34;99674.50;;;7.35;79.42
37694;BME280;23531;50.122;8.644;2024-01-06T08:25:36;99676.59;;;7.20;79.94
37694;BME280;23531;50.122;8.644;2024-01-06T08:27:37;99678.22;;;7.01;80.64
37694;BME280;23531;50.122;8.644;2024-01-06T08:29:39;99672.28;;;7.19;80.18
37694;BME280;23531;50.122;8.644;2024-01-06T08:31:39;99679.91;;;7.22;80.66
37694;BME280;23531;50.122;8.644;2024-01-06T08:33:41;99685.66;;;7.19;80.05
37694;BME280;23531;50.122;8.644;2024-01-06T08:35:42;99685.22;;;7.02;80.74
37694;BME280;23531;50.122;8.644;2024-01-06T08:37:44;99684.41;;;6.95;81.41
37694;BME280;23531;50.122;8.644;2024-01-06T08:39:45;99688.09;;;7.01;80.87
37694;BME280;23531;50.122;8.644;2024-01-06T08:41:47;99691.78;;;6.93;81.57
37694;BME280;23531;50.122;8.644;2024-01-06T08:43:49;99693.44;;;7.01;81.15
37694;BME280;23531;50.122;8.644;2024-01-06T08:45:50;99701.28;;;7.09;81.20
37694;BME280;23531;50.122;8.644;2024-01-06T08:47:51;99699.63;;;7.21;80.96
37694;BME280;23531;50.122;8.644;2024-01-06T08:49:52;99705.81;;;7.21;81.38
37694;BME280;23531;50.122;8.644;2024-01-06T08:51:55;99707.03;;;7.19;81.63
37694;BME280;23531;50.122;8.644;2024-01-06T08:53:56;99710.13;;;7.09;81.80
37694;BME280;23531;50.122;8.644;2024-01-06T08:55:58;99714.81;;;6.94;82.12
37694;BME280;23531;50.122;8.644;2024-01-06T08:57:59;99708.44;;;6.75;82.79
37694;BME280;23531;50.122;8.644;2024-01-06T09:00:00;99709.47;;;6.87;82.68
37694;BME280;23531;50.122;8.644;2024-01-06T09:02:01;99715.22;;;6.91;82.28
37694;BME280;23531;50.122;8.644;2024-01-06T09:04:03;99715.44;;;6.96;82.79
37694;BME280;23531;50.122;8.644;2024-01-06T09:06:04;99717.50;;;7.07;82.71
37694;BME280;23531;50.122;8.644;2024-01-06T09:08:07;99723.69;;;7.14;82.01
37694;BME280;23531;50.122;8.644;2024-01-06T09:10:08;99719.56;;;7.25;81.67
37694;BME280;23531;50.122;8.644;2024-01-06T09:12:10;99723.66;;;6.88;82.99
37694;BME280;23531;50.122;8.644;2024-01-06T09:14:11;99713.56;;;6.90;83.24
37694;BME280;23531;50.122;8.644;2024-01-06T09:16:13;99718.13;;;7.03;83.06
37694;BME280;23531;50.122;8.644;2024-01-06T09:18:14;99731.28;;;6.98;83.05
37694;BME280;23531;50.122;8.644;2024-01-06T09:20:16;99725.47;;;6.81;83.58
37694;BME280;23531;50.122;8.644;2024-01-06T09:22:22;99728.78;;;6.76;83.35
37694;BME280;23531;50.122;8.644;2024-01-06T09:24:25;99725.91;;;6.84;83.29
37694;BME280;23531;50.122;8.644;2024-01-06T09:26:27;99726.34;;;6.88;83.43
37694;BME280;23531;50.122;8.644;2024-01-06T09:28:27;99738.06;;;7.13;82.80
37694;BME280;23531;50.122;8.644;2024-01-06T09:30:29;99739.50;;;6.96;82.69
37694;BME280;23531;50.122;8.644;2024-01-06T09:32:30;99741.34;;;6.96;82.99
37694;BME280;23531;50.122;8.644;2024-01-06T09:34:31;99742.19;;;7.09;83.51
37694;BME280;23531;50.122;8.644;2024-01-06T09:36:32;99741.59;;;7.20;82.90
37694;BME280;23531;50.122;8.644;2024-01-06T09:38:34;99740.53;;;7.35;82.74
37694;BME280;23531;50.122;8.644;2024-01-06T09:40:41;99740.75;;;7.46;82.49
37694;BME280;23531;50.122;8.644;2024-01-06T09:42:43;99751.03;;;7.49;82.14
37694;BME280;23531;50.122;8.644;2024-01-06T09:44:44;99748.16;;;7.38;82.69
37694;BME280;23531;50.122;8.644;2024-01-06T09:46:46;99748.81;;;7.33;82.24
37694;BME280;23531;50.122;8.644;2024-01-06T09:48:51;99747.75;;;7.41;82.94
37694;BME280;23531;50.122;8.644;2024-01-06T09:50:54;99744.03;;;7.48;82.13
37694;BME280;23531;50.122;8.644;2024-01-06T09:52:58;99747.53;;;7.49;82.29
37694;BME280;23531;50.122;8.644;2024-01-06T09:55:07;99748.59;;;7.54;82.20
37694;BME280;23531;50.122;8.644;2024-01-06T09:57:12;99743.03;;;7.49;82.65
37694;BME280;23531;50.122;8.644;2024-01-06T09:59:14;99750.03;;;7.50;82.08
37694;BME280;23531;50.122;8.644;2024-01-06T10:01:17;99741.19;;;7.43;83.02
37694;BME280;23531;50.122;8.644;2024-01-06T10:03:18;99751.84;;;7.56;82.53
37694;BME280;23531;50.122;8.644;2024-01-06T10:05:19;99747.53;;;7.62;82.45
37694;BME280;23531;50.122;8.644;2024-01-06T10:07:21;99757.22;;;7.63;82.66
37694;BME280;23531;50.122;8.644;2024-01-06T10:09:26;99758.03;;;7.57;82.44
37694;BME280;23531;50.122;8.644;2024-01-06T10:11:28;99760.09;;;7.75;81.70
37694;BME280;23531;50.122;8.644;2024-01-06T10:13:30;99759.47;;;7.73;82.07
37694;BME280;23531;50.122;8.644;2024-01-06T10:15:35;99759.06;;;7.62;82.40
37694;BME280;23531;50.122;8.644;2024-01-06T10:17:37;99756.19;;;7.77;82.11
37694;BME280;23531;50.122;8.644;2024-01-06T10:19:39;99764.19;;;7.71;82.09
37694;BME280;23531;50.122;8.644;2024-01-06T10:21:41;99770.19;;;7.66;82.64
37694;BME280;23531;50.122;8.644;2024-01-06T10:23:42;99777.19;;;7.74;82.18
37694;BME280;23531;50.122;8.644;2024-01-06T10:25:46;99770.78;;;7.68;82.85
37694;BME280;23531;50.122;8.644;2024-01-06T10:27:47;99767.72;;;7.58;82.97
37694;BME280;23531;50.122;8.644;2024-01-06T10:29:50;99770.41;;;7.64;83.08
37694;BME280;23531;50.122;8.644;2024-01-06T10:31:52;99778.59;;;7.70;82.05
37694;BME280;23531;50.122;8.644;2024-01-06T10:33:54;99778.81;;;7.35;82.84
37694;BME280;23531;50.122;8.644;2024-01-06T10:35:55;99780.03;;;7.26;83.12
37694;BME280;23531;50.122;8.644;2024-01-06T10:37:57;99779.25;;;7.32;82.97
37694;BME280;23531;50.122;8.644;2024-01-06T10:40:08;99781.69;;;7.27;83.95
37694;BME280;23531;50.122;8.644;2024-01-06T10:42:11;99777.38;;;7.26;83.63
37694;BME280;23531;50.122;8.644;2024-01-06T10:44:14;99777.41;;;7.33;83.87
37694;BME280;23531;50.122;8.644;2024-01-06T10:46:18;99779.03;;;7.53;82.95
37694;BME280;23531;50.122;8.644;2024-01-06T10:48:20;99777.97;;;7.68;82.93
37694;BME280;23531;50.122;8.644;2024-01-06T10:50:24;99779.44;;;7.77;82.69
37694;BME280;23531;50.122;8.644;2024-01-06T10:52:26;99770.38;;;7.84;82.77
37694;BME280;23531;50.122;8.644;2024-01-06T10:54:27;99774.28;;;7.75;82.10